createdAt,value
2017-09-20T00:01:58.182Z,16.50
2017-09-20T00:04:25.658Z,16.20
2017-09-20T00:06:53.924Z,16.20
2017-09-20T00:09:21.385Z,16.10
2017-09-20T00:11:49.624Z,16.60
2017-09-20T00:14:17.094Z,16.60
2017-09-20T00:16:44.574Z,16.50
2017-09-20T00:19:12.814Z,16.30
2017-09-20T00:21:40.294Z,16.20
2017-09-20T00:24:07.765Z,16.30
2017-09-20T00:26:36.016Z,16.30
2017-09-20T00:29:03.500Z,16.30
2017-09-20T00:31:30.978Z,16.00
2017-09-20T00:33:59.222Z,16.50
2017-09-20T00:36:26.699Z,16.50
2017-09-20T00:38:54.181Z,16.30
2017-09-20T00:41:21.667Z,16.40
2017-09-20T00:43:49.138Z,16.00
2017-09-20T00:46:16.614Z,15.70
2017-09-20T00:48:44.094Z,16.10
2017-09-20T00:51:12.627Z,16.20
2017-09-20T00:53:40.110Z,16.10
2017-09-20T00:56:07.594Z,16.40
2017-09-20T00:58:35.075Z,16.40
2017-09-20T01:01:02.563Z,16.10
2017-09-20T01:03:30.033Z,15.90
2017-09-20T01:05:57.511Z,16.20
2017-09-20T01:08:24.989Z,16.10
2017-09-20T01:10:53.235Z,15.70
2017-09-20T01:13:20.706Z,15.60
2017-09-20T01:15:48.187Z,15.70
2017-09-20T01:18:16.431Z,15.90
2017-09-20T01:20:55.799Z,15.80
2017-09-20T01:23:39.851Z,16.00
2017-09-20T01:26:08.107Z,16.10
2017-09-20T01:28:35.590Z,16.00
2017-09-20T01:31:03.834Z,16.20
2017-09-20T01:33:31.326Z,16.10
2017-09-20T01:35:59.574Z,16.30
2017-09-20T01:38:27.051Z,16.30
2017-09-20T01:40:55.298Z,16.00
2017-09-20T01:43:22.773Z,16.00
2017-09-20T01:45:50.258Z,16.20
2017-09-20T01:48:18.502Z,15.70
2017-09-20T01:50:45.987Z,15.60
2017-09-20T01:53:14.229Z,15.60
2017-09-20T01:55:41.709Z,15.60
2017-09-20T01:58:09.195Z,16.10
2017-09-20T02:00:37.451Z,15.40
2017-09-20T02:03:04.939Z,15.30
2017-09-20T02:05:32.415Z,15.30
2017-09-20T02:07:59.892Z,15.80
2017-09-20T02:10:27.378Z,15.90
2017-09-20T02:12:54.862Z,15.70
2017-09-20T02:15:23.113Z,16.00
2017-09-20T02:17:50.596Z,15.90
2017-09-20T02:20:18.853Z,16.10
2017-09-20T02:22:46.331Z,16.00
2017-09-20T02:25:14.565Z,16.10
2017-09-20T02:27:42.042Z,16.10
2017-09-20T02:30:09.514Z,16.00
2017-09-20T02:32:37.767Z,16.00
2017-09-20T02:35:05.256Z,15.90
2017-09-20T02:37:33.502Z,15.90
2017-09-20T02:40:00.981Z,15.80
2017-09-20T02:42:28.463Z,15.90
2017-09-20T02:44:55.959Z,15.90
2017-09-20T02:47:23.437Z,15.80
2017-09-20T02:49:50.914Z,15.90
2017-09-20T02:52:18.400Z,15.70
2017-09-20T02:54:46.773Z,15.80
2017-09-20T02:57:15.026Z,15.70
2017-09-20T02:59:42.492Z,15.60
2017-09-20T03:02:10.739Z,15.90
2017-09-20T03:04:38.215Z,15.90
2017-09-20T03:07:05.689Z,16.10
2017-09-20T03:09:33.948Z,16.00
2017-09-20T03:12:01.439Z,15.90
2017-09-20T03:14:29.682Z,16.10
2017-09-20T03:16:57.158Z,16.00
2017-09-20T03:19:24.635Z,16.20
2017-09-20T03:21:52.885Z,15.90
2017-09-20T03:24:20.361Z,15.80
2017-09-20T03:26:48.602Z,15.60
2017-09-20T03:29:16.086Z,15.60
2017-09-20T03:31:44.335Z,15.40
2017-09-20T03:34:11.814Z,15.30
2017-09-20T03:36:39.291Z,15.70
2017-09-20T03:39:07.538Z,15.70
2017-09-20T03:41:35.027Z,15.60
2017-09-20T03:44:03.283Z,15.10
2017-09-20T03:46:30.771Z,15.00
2017-09-20T03:48:59.642Z,14.80
2017-09-20T03:51:27.118Z,14.70
2017-09-20T03:53:55.372Z,14.80
2017-09-20T03:56:22.851Z,14.70
2017-09-20T03:58:51.089Z,14.60
2017-09-20T04:01:18.583Z,14.50
2017-09-20T04:03:46.840Z,14.40
2017-09-20T04:06:14.313Z,14.40
2017-09-20T04:08:42.559Z,14.30
2017-09-20T04:11:10.034Z,14.30
2017-09-20T04:13:37.513Z,14.20
2017-09-20T04:16:05.757Z,14.00
2017-09-20T04:18:33.239Z,14.00
2017-09-20T04:21:01.503Z,13.80
2017-09-20T04:23:28.996Z,13.80
2017-09-20T04:25:57.237Z,13.80
2017-09-20T04:28:24.711Z,13.80
2017-09-20T04:30:52.968Z,13.80
2017-09-20T04:33:20.462Z,13.80
2017-09-20T04:35:48.754Z,13.80
2017-09-20T04:38:16.249Z,13.70
2017-09-20T04:40:44.523Z,13.70
2017-09-20T04:43:12.017Z,13.70
2017-09-20T04:45:40.291Z,13.90
2017-09-20T04:48:07.772Z,13.90
2017-09-20T04:50:36.059Z,14.00
2017-09-20T04:53:03.538Z,13.90
2017-09-20T04:55:31.032Z,14.00
2017-09-20T04:57:58.531Z,14.00
2017-09-20T05:00:26.785Z,13.90
2017-09-20T05:02:55.039Z,13.90
2017-09-20T05:05:22.514Z,13.90
2017-09-20T05:07:50.006Z,14.10
2017-09-20T05:10:17.486Z,14.00
2017-09-20T05:12:44.970Z,14.00
2017-09-20T05:15:12.450Z,14.00
2017-09-20T05:17:39.924Z,14.00
2017-09-20T05:20:08.187Z,13.90
2017-09-20T05:22:36.445Z,13.70
2017-09-20T05:25:03.930Z,13.70
2017-09-20T05:27:31.410Z,13.70
2017-09-20T05:29:58.931Z,13.70
2017-09-20T05:32:26.406Z,13.90
2017-09-20T05:34:53.890Z,13.90
2017-09-20T05:37:21.380Z,13.90
2017-09-20T05:39:48.854Z,13.90
2017-09-20T05:42:16.358Z,13.80
2017-09-20T05:44:44.610Z,13.70
2017-09-20T05:47:12.859Z,13.70
2017-09-20T05:49:40.337Z,13.70
2017-09-20T05:52:07.832Z,13.70
2017-09-20T05:54:36.083Z,13.70
2017-09-20T05:57:03.577Z,13.70
2017-09-20T05:59:31.066Z,13.70
2017-09-20T06:01:58.541Z,13.70
2017-09-20T06:04:26.023Z,13.60
2017-09-20T06:06:53.501Z,13.70
2017-09-20T06:09:21.742Z,13.60
2017-09-20T06:11:49.236Z,13.50
2017-09-20T06:14:17.482Z,13.60
2017-09-20T06:16:44.962Z,13.50
2017-09-20T06:19:13.206Z,13.70
2017-09-20T06:21:40.698Z,13.60
2017-09-20T06:24:08.952Z,13.70
2017-09-20T06:26:36.431Z,13.60
2017-09-20T06:29:04.689Z,13.80
2017-09-20T06:31:32.174Z,13.70
2017-09-20T06:34:00.420Z,13.80
2017-09-20T06:36:27.893Z,13.70
2017-09-20T06:38:55.379Z,13.80
2017-09-20T06:41:22.854Z,13.70
2017-09-20T06:43:50.338Z,13.70
2017-09-20T06:46:17.815Z,13.70
2017-09-20T06:48:45.295Z,13.80
2017-09-20T06:51:13.551Z,13.80
2017-09-20T06:53:41.030Z,13.80
2017-09-20T06:56:09.278Z,14.00
2017-09-20T06:58:36.767Z,13.90
2017-09-20T07:01:04.268Z,14.00
2017-09-20T07:03:31.750Z,14.00
2017-09-20T07:05:59.230Z,13.90
2017-09-20T07:08:26.705Z,13.80
2017-09-20T07:10:54.945Z,13.90
2017-09-20T07:13:22.418Z,13.90
2017-09-20T07:15:49.903Z,14.00
2017-09-20T07:18:18.152Z,14.10
2017-09-20T07:20:45.638Z,14.10
2017-09-20T07:23:13.883Z,14.30
2017-09-20T07:25:41.366Z,14.20
2017-09-20T07:28:09.605Z,14.50
2017-09-20T07:30:37.086Z,14.40
2017-09-20T07:33:04.562Z,14.50
2017-09-20T07:35:32.814Z,14.50
2017-09-20T07:38:00.302Z,14.50
2017-09-20T07:40:28.552Z,14.80
2017-09-20T07:42:56.048Z,14.80
2017-09-20T07:45:24.303Z,15.30
2017-09-20T07:47:51.777Z,15.30
2017-09-20T07:50:20.030Z,15.40
2017-09-20T07:52:47.538Z,15.40
2017-09-20T07:55:15.771Z,15.10
2017-09-20T07:57:43.262Z,15.00
2017-09-20T08:00:10.742Z,15.50
2017-09-20T08:02:38.216Z,15.50
2017-09-20T08:05:05.699Z,15.90
2017-09-20T08:07:33.197Z,15.80
2017-09-20T08:10:00.682Z,15.70
2017-09-20T08:12:28.158Z,15.70
2017-09-20T08:14:55.634Z,15.80
2017-09-20T08:17:23.118Z,15.60
2017-09-20T08:19:51.371Z,16.40
2017-09-20T08:22:18.861Z,16.30
2017-09-20T08:24:47.122Z,16.20
2017-09-20T08:27:15.378Z,16.40
2017-09-20T08:29:42.863Z,16.30
2017-09-20T08:32:11.111Z,16.20
2017-09-20T08:34:38.599Z,16.10
2017-09-20T08:37:06.852Z,16.80
2017-09-20T08:39:34.327Z,16.80
2017-09-20T08:42:02.588Z,16.50
2017-09-20T08:44:30.071Z,16.40
2017-09-20T08:46:58.486Z,17.10
2017-09-20T08:49:25.970Z,17.00
2017-09-20T08:51:53.463Z,16.60
2017-09-20T08:54:21.720Z,16.40
2017-09-20T08:56:50.000Z,16.30
2017-09-20T08:59:17.481Z,16.60
2017-09-20T09:01:45.730Z,16.70
2017-09-20T09:04:13.221Z,16.70
2017-09-20T09:06:41.479Z,17.00
2017-09-20T09:09:10.474Z,16.80
2017-09-20T09:11:37.958Z,16.80
2017-09-20T09:14:06.212Z,16.90
2017-09-20T09:16:34.547Z,16.90
2017-09-20T09:19:02.043Z,16.80
2017-09-20T09:24:12.423Z,17.10
2017-09-20T09:26:39.924Z,17.00
2017-09-20T09:29:07.450Z,17.00
2017-09-20T09:31:34.930Z,17.20
2017-09-20T09:34:03.173Z,17.20
2017-09-20T09:36:30.660Z,17.10
2017-09-20T09:38:58.906Z,17.00
2017-09-20T09:41:26.390Z,17.00
2017-09-20T09:43:54.639Z,17.10
2017-09-20T09:46:22.150Z,17.10
2017-09-20T09:48:49.648Z,17.10
2017-09-20T09:51:17.143Z,17.50
2017-09-20T09:53:45.390Z,17.50
2017-09-20T09:56:12.879Z,17.40
2017-09-20T09:58:41.126Z,17.50
2017-09-20T10:01:08.614Z,17.50
2017-09-20T10:03:36.866Z,17.50
2017-09-20T10:06:04.362Z,17.40
2017-09-20T10:08:32.627Z,17.60
2017-09-20T10:11:00.887Z,17.70
2017-09-20T10:13:28.383Z,17.70
2017-09-20T10:15:55.880Z,17.70
2017-09-20T10:18:23.465Z,17.60
2017-09-20T10:20:51.746Z,17.70
2017-09-20T10:23:19.221Z,17.60
2017-09-20T10:25:47.482Z,17.80
2017-09-20T10:28:14.966Z,17.80
2017-09-20T10:30:43.201Z,17.90
2017-09-20T10:33:10.703Z,17.80
2017-09-20T10:35:38.940Z,18.10
2017-09-20T10:38:06.432Z,18.10
2017-09-20T10:40:34.687Z,18.20
2017-09-20T10:43:02.202Z,18.10
2017-09-20T10:45:29.691Z,18.10
2017-09-20T10:47:57.175Z,18.10
2017-09-20T10:50:25.427Z,18.00
2017-09-20T10:52:52.901Z,18.00
2017-09-20T10:55:20.383Z,18.00
2017-09-20T10:57:48.628Z,18.10
2017-09-20T11:00:16.116Z,18.00
2017-09-20T11:02:44.362Z,18.10
2017-09-20T11:05:11.833Z,18.10
2017-09-20T11:07:39.319Z,18.10
2017-09-20T11:10:06.815Z,18.00
2017-09-20T11:12:34.291Z,18.10
2017-09-20T11:15:01.772Z,18.10
2017-09-20T11:17:30.030Z,18.20
2017-09-20T11:19:57.538Z,18.10
2017-09-20T11:22:25.020Z,18.20
2017-09-20T11:24:52.501Z,18.10
2017-09-20T11:27:19.990Z,18.20
2017-09-20T11:29:48.242Z,18.40
2017-09-20T11:32:15.717Z,18.40
2017-09-20T11:34:43.208Z,18.30
2017-09-20T11:37:11.445Z,18.50
2017-09-20T11:39:38.924Z,18.40
2017-09-20T11:42:07.179Z,18.50
2017-09-20T11:44:34.666Z,18.40
2017-09-20T11:47:02.912Z,18.50
2017-09-20T11:49:30.405Z,18.50
2017-09-20T11:51:58.659Z,18.30
2017-09-20T11:54:26.157Z,18.30
2017-09-20T11:56:57.690Z,18.50
2017-09-20T11:59:25.933Z,18.70
2017-09-20T12:01:53.418Z,18.60
2017-09-20T12:04:21.696Z,18.90
2017-09-20T12:06:49.955Z,18.80
2017-09-20T12:09:17.441Z,18.80
2017-09-20T12:11:45.684Z,18.90
2017-09-20T12:14:13.166Z,18.90
2017-09-20T12:16:41.424Z,18.80
2017-09-20T12:19:08.907Z,18.80
2017-09-20T12:21:37.161Z,18.80
2017-09-20T12:24:04.642Z,18.70
2017-09-20T12:26:33.820Z,19.00
2017-09-20T12:29:01.310Z,19.00
2017-09-20T12:31:29.571Z,18.90
2017-09-20T12:33:57.860Z,19.00
2017-09-20T12:36:26.125Z,19.00
2017-09-20T12:38:54.371Z,19.00
2017-09-20T12:41:21.864Z,18.90
2017-09-20T12:43:50.915Z,19.00
2017-09-20T12:46:18.394Z,19.00
2017-09-20T12:48:45.877Z,19.20
2017-09-20T12:51:14.135Z,19.40
2017-09-20T12:53:41.625Z,19.30
2017-09-20T12:56:09.896Z,19.30
2017-09-20T12:58:38.133Z,19.40
2017-09-20T13:01:05.614Z,19.30
2017-09-20T13:03:33.096Z,19.40
2017-09-20T13:06:01.343Z,19.40
2017-09-20T13:08:28.826Z,19.30
2017-09-20T13:10:57.086Z,19.40
2017-09-20T13:13:25.330Z,19.40
2017-09-20T13:15:52.811Z,19.40
2017-09-20T13:18:20.290Z,19.50
2017-09-20T13:20:49.716Z,19.50
2017-09-20T13:25:53.110Z,19.50
2017-09-20T13:28:21.387Z,19.50
2017-09-20T13:30:49.714Z,19.50
2017-09-20T13:33:17.185Z,19.50
2017-09-20T13:35:44.676Z,19.50
2017-09-20T13:38:12.935Z,19.60
2017-09-20T13:40:40.422Z,19.60
2017-09-20T13:43:08.671Z,19.40
2017-09-20T13:45:36.150Z,19.40
2017-09-20T13:48:04.388Z,19.50
2017-09-20T13:50:31.863Z,19.50
2017-09-20T13:52:59.366Z,19.40
2017-09-20T13:55:27.700Z,19.50
2017-09-20T13:57:55.199Z,19.40
2017-09-20T14:00:23.450Z,19.80
2017-09-20T14:02:50.950Z,19.70
2017-09-20T14:05:18.434Z,19.60
2017-09-20T14:07:46.001Z,19.70
2017-09-20T14:10:13.526Z,19.70
2017-09-20T14:12:41.023Z,19.70
2017-09-20T14:15:08.516Z,19.70
2017-09-20T14:17:36.767Z,19.70
2017-09-20T14:20:04.241Z,19.70
2017-09-20T14:22:31.726Z,19.50
2017-09-20T14:24:59.970Z,19.60
2017-09-20T14:27:27.453Z,19.60
2017-09-20T14:29:55.709Z,20.10
2017-09-20T14:32:23.199Z,20.00
2017-09-20T14:34:51.463Z,20.00
2017-09-20T14:37:19.711Z,20.00
2017-09-20T14:39:47.185Z,19.90
2017-09-20T14:42:14.672Z,19.80
2017-09-20T14:44:42.930Z,19.80
2017-09-20T14:47:11.195Z,19.70
2017-09-20T14:49:38.691Z,19.70
2017-09-20T14:52:06.960Z,19.80
2017-09-20T14:54:35.221Z,19.90
2017-09-20T14:57:03.281Z,19.80
2017-09-20T14:59:36.497Z,19.80
2017-09-20T15:02:04.754Z,19.80
2017-09-20T15:04:33.035Z,19.80
2017-09-20T15:07:02.022Z,19.70
2017-09-20T15:09:29.511Z,19.70
2017-09-20T15:11:58.642Z,19.60
2017-09-20T15:14:26.137Z,19.60
2017-09-20T15:16:53.620Z,19.80
2017-09-20T15:19:21.870Z,19.80
2017-09-20T15:21:49.356Z,19.80
2017-09-20T15:24:17.602Z,19.70
2017-09-20T15:26:45.085Z,19.70
2017-09-20T15:29:13.343Z,19.70
2017-09-20T15:31:40.837Z,19.70
2017-09-20T15:34:09.090Z,19.90
2017-09-20T15:36:37.345Z,19.80
2017-09-20T15:39:04.838Z,19.80
2017-09-20T15:41:33.095Z,19.80
2017-09-20T15:44:00.611Z,19.70
2017-09-20T15:46:28.089Z,19.70
2017-09-20T15:48:55.576Z,19.70
2017-09-20T15:51:23.068Z,19.60
2017-09-20T15:54:24.136Z,19.60
2017-09-20T15:56:51.613Z,19.60
2017-09-20T15:59:19.095Z,19.70
2017-09-20T16:01:47.333Z,19.60
2017-09-20T16:04:14.861Z,19.60
2017-09-20T16:06:42.405Z,19.60
2017-09-20T16:09:09.882Z,19.60
2017-09-20T16:11:38.969Z,19.70
2017-09-20T16:14:08.170Z,19.60
2017-09-20T16:16:36.416Z,19.60
2017-09-20T16:19:05.137Z,19.50
2017-09-20T16:21:33.385Z,19.50
2017-09-20T16:24:00.882Z,19.50
2017-09-20T16:26:29.133Z,19.60
2017-09-20T16:28:57.395Z,19.60
2017-09-20T16:31:24.896Z,19.50
2017-09-20T16:33:53.150Z,19.50
2017-09-20T16:36:21.475Z,19.50
2017-09-20T16:38:48.972Z,19.40
2017-09-20T16:41:16.526Z,19.50
2017-09-20T16:43:44.027Z,19.50
2017-09-20T16:46:11.541Z,19.50
2017-09-20T16:48:39.025Z,19.40
2017-09-20T16:51:08.041Z,19.60
2017-09-20T16:53:36.336Z,19.50
2017-09-20T16:56:03.872Z,19.40
2017-09-20T16:58:32.345Z,19.30
2017-09-20T17:01:00.633Z,19.20
2017-09-20T17:03:28.162Z,19.20
2017-09-20T17:05:55.663Z,19.20
2017-09-20T17:08:23.917Z,19.30
2017-09-20T17:10:59.727Z,19.20
2017-09-20T17:13:27.247Z,19.10
2017-09-20T17:15:55.500Z,19.10
2017-09-20T17:18:24.501Z,19.00
2017-09-20T17:20:52.770Z,19.00
2017-09-20T17:23:21.781Z,19.00
2017-09-20T17:25:50.031Z,19.00
2017-09-20T17:28:17.508Z,18.90
2017-09-20T17:30:45.775Z,18.90
2017-09-20T17:33:13.262Z,18.90
2017-09-20T17:35:41.514Z,18.90
2017-09-20T17:38:08.998Z,18.80
2017-09-20T17:40:37.252Z,18.80
2017-09-20T17:43:05.507Z,18.80
2017-09-20T17:45:32.982Z,18.70
2017-09-20T17:48:00.475Z,18.70
2017-09-20T17:50:28.717Z,18.60
2017-09-20T17:52:56.194Z,18.60
2017-09-20T17:55:34.373Z,18.50
2017-09-20T17:58:01.859Z,18.50
2017-09-20T18:00:30.115Z,18.50
2017-09-20T18:02:58.374Z,18.40
2017-09-20T18:05:25.848Z,18.40
2017-09-20T18:07:53.317Z,18.40
2017-09-20T18:10:20.800Z,18.30
2017-09-20T18:12:49.052Z,18.20
2017-09-20T18:15:16.544Z,18.10
2017-09-20T18:17:44.802Z,18.20
2017-09-20T18:20:15.990Z,18.20
2017-09-20T18:22:43.477Z,18.20
2017-09-20T18:25:10.948Z,18.20
2017-09-20T18:28:34.131Z,18.20
2017-09-20T18:31:02.396Z,18.10
2017-09-20T18:33:29.870Z,18.00
2017-09-20T18:35:58.124Z,17.80
2017-09-20T18:38:25.610Z,17.70
2017-09-20T18:40:53.861Z,17.70
2017-09-20T18:43:23.139Z,17.60
2017-09-20T18:45:51.424Z,17.60
2017-09-20T18:48:19.480Z,17.60
2017-09-20T18:50:48.098Z,17.60
2017-09-20T18:53:17.819Z,17.60
2017-09-20T18:55:46.428Z,17.70
2017-09-20T18:58:14.695Z,17.60
2017-09-20T19:00:44.831Z,17.60
2017-09-20T19:03:12.310Z,17.60
2017-09-20T19:05:39.802Z,17.70
2017-09-20T19:08:07.733Z,17.60
2017-09-20T19:10:35.310Z,17.70
2017-09-20T19:13:02.821Z,17.60
2017-09-20T19:15:32.109Z,17.60
2017-09-20T19:18:00.239Z,17.50
2017-09-20T19:20:28.022Z,17.50
2017-09-20T19:22:55.618Z,17.50
2017-09-20T19:25:23.955Z,17.50
2017-09-20T19:27:51.985Z,17.50
2017-09-20T19:30:20.250Z,17.40
2017-09-20T19:32:48.538Z,17.30
2017-09-20T19:35:17.711Z,17.20
2017-09-20T19:37:45.279Z,17.20
2017-09-20T19:40:12.792Z,17.30
2017-09-20T19:42:41.214Z,17.30
2017-09-20T19:45:09.954Z,17.20
2017-09-20T19:47:37.834Z,17.20
2017-09-20T19:50:05.795Z,17.20
2017-09-20T19:52:33.630Z,17.20
2017-09-20T19:55:01.959Z,17.10
2017-09-20T19:57:29.627Z,17.00
2017-09-20T19:59:57.801Z,17.00
2017-09-20T20:02:25.744Z,16.90
2017-09-20T20:16:45.988Z,16.80
2017-09-20T20:19:14.986Z,16.60
2017-09-20T20:21:43.249Z,16.60
2017-09-20T20:24:10.759Z,16.50
2017-09-20T20:26:38.279Z,16.60
2017-09-20T20:29:07.113Z,16.70
2017-09-20T20:31:35.046Z,16.60
2017-09-20T20:34:03.498Z,16.70
2017-09-20T20:36:31.003Z,16.60
2017-09-20T20:39:00.735Z,16.70
2017-09-20T20:41:32.402Z,16.60
2017-09-20T20:44:01.603Z,16.50
2017-09-20T20:46:34.666Z,16.50
2017-09-20T20:49:02.142Z,16.40
2017-09-20T20:51:29.619Z,16.40
2017-09-20T20:53:57.119Z,16.30
2017-09-20T20:56:25.371Z,16.30
2017-09-20T20:58:53.613Z,16.30
2017-09-20T21:01:21.089Z,16.20
2017-09-20T21:03:48.579Z,16.20
2017-09-20T21:06:16.840Z,16.10
2017-09-20T21:08:44.313Z,16.00
2017-09-20T21:11:12.562Z,16.00
2017-09-20T21:13:40.075Z,15.90
2017-09-20T21:16:08.308Z,16.00
2017-09-20T21:18:43.323Z,15.90
2017-09-20T21:21:10.807Z,16.00
2017-09-20T21:23:38.278Z,16.00
2017-09-20T21:26:06.526Z,16.00
2017-09-20T21:28:34.011Z,15.90
2017-09-20T21:31:01.496Z,16.00
2017-09-20T21:33:28.982Z,16.00
2017-09-20T21:35:56.453Z,15.90
2017-09-20T21:38:23.934Z,15.90
2017-09-20T21:40:51.411Z,15.80
2017-09-20T21:43:19.667Z,15.80
2017-09-20T21:45:47.153Z,15.70
2017-09-20T21:48:15.398Z,15.80
2017-09-20T21:50:42.882Z,15.80
2017-09-20T21:53:11.155Z,15.90
2017-09-20T21:55:41.091Z,15.80
2017-09-20T21:58:09.382Z,15.90
2017-09-20T22:00:37.606Z,15.90
2017-09-20T22:03:05.082Z,15.90
2017-09-20T22:05:32.563Z,15.90
2017-09-20T22:08:00.822Z,15.90
2017-09-20T22:10:29.079Z,15.90
2017-09-20T22:12:56.563Z,15.80
2017-09-20T22:15:36.633Z,15.80
2017-09-20T22:18:16.131Z,15.80
2017-09-20T22:20:55.527Z,15.80
2017-09-20T22:23:34.960Z,15.80
2017-09-20T22:26:14.474Z,15.80
2017-09-20T22:28:42.727Z,15.80
2017-09-20T22:31:21.780Z,15.70
2017-09-20T22:33:50.020Z,15.70
2017-09-20T22:36:20.400Z,15.60
2017-09-20T22:38:48.655Z,15.50
2017-09-20T22:41:16.899Z,15.50
2017-09-20T22:43:44.408Z,15.40
2017-09-20T22:46:12.659Z,15.40
2017-09-20T22:48:40.133Z,15.40
2017-09-20T22:51:08.914Z,15.40
2017-09-20T22:53:39.927Z,15.40
2017-09-20T22:56:07.402Z,15.40
2017-09-20T22:58:34.882Z,15.40
2017-09-20T23:01:03.125Z,15.40
2017-09-20T23:03:30.611Z,15.30
2017-09-20T23:05:58.853Z,15.30
2017-09-20T23:08:26.330Z,15.30
2017-09-20T23:10:55.930Z,15.30
2017-09-20T23:13:23.419Z,15.30
2017-09-20T23:15:51.677Z,15.20
2017-09-20T23:18:19.145Z,15.20
2017-09-20T23:20:46.639Z,15.30
2017-09-20T23:23:14.118Z,15.20
2017-09-20T23:25:41.601Z,15.20
2017-09-20T23:28:09.082Z,15.20
2017-09-20T23:30:36.561Z,15.20
2017-09-20T23:33:04.810Z,15.20
2017-09-20T23:35:32.295Z,15.20
2017-09-20T23:38:00.545Z,15.20
2017-09-20T23:40:28.033Z,15.10
2017-09-20T23:42:56.273Z,15.10
2017-09-20T23:45:23.751Z,15.00
2017-09-20T23:47:52.003Z,15.10
2017-09-20T23:50:19.489Z,15.10
2017-09-20T23:53:02.626Z,15.20
2017-09-20T23:55:30.871Z,15.10
2017-09-20T23:57:58.381Z,15.10
